Knottingley, United Kingdom
Current Conditions -  °F | °C
As of 3:20 PM on Thursday 18 Dec 2014 (Local Time) from EGNM Reporting Station
Light Rain Light Rain  
Wind Chill: 11°   Ceiling: 800
Heat Index: 11°   Visibility: 5mi
Dew Point: 11°   Wind: 24mph
Humidity: 100%   Direction: 250°WSW
Pressure: 29.47"   Gusts: 41mph
Location:  53.71°N, 1.26°W
Report Text: EGNM 181520Z 25021G36KT 8000 -RA SCT006 BKN008 11/11 Q0998
Loading
Personal Weather Stations






























Interactive Weather Map New forecast layout! Learn more

10-Day Weather Forecast

Advertisements
Track Severe Weather on mobile